createdAt,value
2023-03-26T00:02:23.279Z,99596.20
2023-03-26T00:05:30.408Z,99605.22
2023-03-26T00:08:36.803Z,99602.84
2023-03-26T00:11:44.074Z,99599.93
2023-03-26T00:14:51.107Z,99603.16
2023-03-26T00:17:56.630Z,99595.67
2023-03-26T00:21:02.615Z,99593.98
2023-03-26T00:24:12.546Z,99592.67
2023-03-26T00:27:17.648Z,99590.28
2023-03-26T00:30:24.105Z,99573.47
2023-03-26T00:33:30.748Z,99579.66
2023-03-26T00:36:37.768Z,99586.71
2023-03-26T00:39:46.749Z,99578.36
2023-03-26T00:42:53.319Z,99570.55
2023-03-26T00:46:03.847Z,99561.00
2023-03-26T00:49:11.492Z,99569.67
2023-03-26T00:52:18.082Z,99568.31
2023-03-26T00:55:25.674Z,99575.62
2023-03-26T00:58:32.611Z,99569.80
2023-03-26T01:01:40.671Z,99570.11
2023-03-26T01:04:51.678Z,99582.87
2023-03-26T01:07:58.146Z,99578.23
2023-03-26T01:11:05.284Z,99568.18
2023-03-26T01:14:18.200Z,99569.86
2023-03-26T01:17:23.940Z,99569.55
2023-03-26T01:20:37.535Z,99580.78
2023-03-26T01:23:46.781Z,99584.69
2023-03-26T01:27:12.277Z,99579.36
2023-03-26T01:30:45.611Z,99578.30
2023-03-26T01:34:02.564Z,99590.40
2023-03-26T01:37:42.518Z,99581.02
2023-03-26T01:41:03.163Z,99584.94
2023-03-26T01:44:43.289Z,99583.06
2023-03-26T01:47:50.262Z,99576.57
2023-03-26T01:50:58.965Z,99580.97
2023-03-26T01:54:05.812Z,99580.14
2023-03-26T01:57:18.983Z,99576.88
2023-03-26T02:00:48.386Z,99584.05
2023-03-26T02:04:05.185Z,99580.76
2023-03-26T02:07:18.563Z,99587.20
2023-03-26T02:10:42.538Z,99588.39
2023-03-26T02:13:48.859Z,99581.56
2023-03-26T02:16:55.352Z,99579.09
2023-03-26T02:20:00.865Z,99577.11
2023-03-26T02:23:07.952Z,99576.62
2023-03-26T02:26:13.404Z,99574.64
2023-03-26T02:29:30.488Z,99578.09
2023-03-26T02:32:36.348Z,99571.59
2023-03-26T02:35:43.613Z,99570.73
2023-03-26T02:38:50.763Z,99568.20
2023-03-26T02:41:56.926Z,99563.41
2023-03-26T02:45:05.965Z,99567.32
2023-03-26T02:48:29.592Z,99566.28
2023-03-26T02:51:39.738Z,99559.64
2023-03-26T02:54:53.910Z,99561.07
2023-03-26T02:58:00.791Z,99562.18
2023-03-26T03:01:12.429Z,99560.13
2023-03-26T03:04:27.617Z,99560.81
2023-03-26T03:07:34.192Z,99559.56
2023-03-26T03:10:41.244Z,99570.84
2023-03-26T03:13:48.686Z,99562.30
2023-03-26T03:16:57.659Z,99564.34
2023-03-26T03:20:03.171Z,99560.26
2023-03-26T03:23:09.524Z,99566.75
2023-03-26T03:26:09.210Z,99557.20
2023-03-26T03:29:20.678Z,99551.70
2023-03-26T03:32:29.921Z,99555.10
2023-03-26T03:35:36.582Z,99555.23
2023-03-26T03:38:44.787Z,99551.15
2023-03-26T03:41:52.363Z,99541.79
2023-03-26T03:44:58.556Z,99540.61
2023-03-26T03:48:16.573Z,99538.57
2023-03-26T03:51:23.285Z,99540.84
2023-03-26T03:54:31.671Z,99539.48
2023-03-26T03:57:41.716Z,99529.58
2023-03-26T04:00:52.104Z,99534.17
2023-03-26T04:04:16.803Z,99530.25
2023-03-26T04:07:34.282Z,99522.39
2023-03-26T04:10:55.969Z,99533.42
2023-03-26T04:14:08.553Z,99536.09
2023-03-26T04:17:17.571Z,99533.98
2023-03-26T04:20:26.129Z,99533.11
2023-03-26T04:23:33.620Z,99541.27
2023-03-26T04:26:42.242Z,99546.00
2023-03-26T04:29:59.177Z,99545.31
2023-03-26T04:33:07.630Z,99537.94
2023-03-26T04:36:14.600Z,99543.37
2023-03-26T04:39:21.210Z,99540.97
2023-03-26T04:42:46.492Z,99546.92
2023-03-26T04:45:59.874Z,99550.33
2023-03-26T04:49:07.634Z,99538.34
2023-03-26T04:52:13.737Z,99537.97
2023-03-26T04:55:25.216Z,99538.29
2023-03-26T04:58:34.426Z,99539.02
2023-03-26T05:01:39.841Z,99543.25
2023-03-26T05:04:50.356Z,99546.83
2023-03-26T05:07:57.333Z,99544.80
2023-03-26T05:11:04.379Z,99547.20
2023-03-26T05:14:10.039Z,99540.84
2023-03-26T05:17:17.989Z,99548.68
2023-03-26T05:20:29.135Z,99549.50
2023-03-26T05:23:36.473Z,99554.59
2023-03-26T05:26:48.327Z,99553.58
2023-03-26T05:29:57.399Z,99547.58
2023-03-26T05:33:07.322Z,99559.54
2023-03-26T05:36:25.848Z,99560.11
2023-03-26T05:39:50.773Z,99557.88
2023-03-26T05:43:05.085Z,99565.27
2023-03-26T05:46:14.288Z,99559.80
2023-03-26T05:49:21.020Z,99555.20
2023-03-26T05:52:27.618Z,99560.80
2023-03-26T05:55:55.438Z,99555.83
2023-03-26T05:59:19.944Z,99553.89
2023-03-26T06:02:43.903Z,99550.13
2023-03-26T06:06:00.494Z,99549.42
2023-03-26T06:09:11.928Z,99557.30
2023-03-26T06:12:17.791Z,99556.92
2023-03-26T06:15:25.653Z,99558.72
2023-03-26T06:18:34.099Z,99561.73
2023-03-26T06:21:42.366Z,99565.14
2023-03-26T06:24:53.496Z,99565.96
2023-03-26T06:28:19.795Z,99561.36
2023-03-26T06:31:31.422Z,99559.80
2023-03-26T06:34:50.032Z,99557.58
2023-03-26T06:37:57.416Z,99553.30
2023-03-26T06:41:05.512Z,99560.80
2023-03-26T06:44:17.585Z,99559.42
2023-03-26T06:47:43.660Z,99560.48
2023-03-26T06:50:57.601Z,99566.06
2023-03-26T06:54:07.796Z,99565.94
2023-03-26T06:57:28.344Z,99559.62
2023-03-26T07:00:50.504Z,99566.44
2023-03-26T07:04:14.376Z,99569.34
2023-03-26T07:07:45.765Z,99561.27
2023-03-26T07:11:03.957Z,99567.05
2023-03-26T07:14:22.826Z,99566.17
2023-03-26T07:17:47.663Z,99566.14
2023-03-26T07:20:56.038Z,99563.35
2023-03-26T07:24:04.546Z,99557.38
2023-03-26T07:27:31.147Z,99555.59
2023-03-26T07:31:15.521Z,99561.06
2023-03-26T07:34:45.338Z,99556.14
2023-03-26T07:37:58.601Z,99556.56
2023-03-26T07:41:32.779Z,99553.92
2023-03-26T07:45:08.166Z,99551.47
2023-03-26T07:48:36.785Z,99551.47
2023-03-26T07:51:47.657Z,99551.54
2023-03-26T07:54:58.223Z,99549.44
2023-03-26T07:58:29.264Z,99560.66
2023-03-26T08:02:27.667Z,99555.62
2023-03-26T08:05:49.037Z,99557.98
2023-03-26T08:09:25.651Z,99555.69
2023-03-26T08:12:42.717Z,99554.38
2023-03-26T08:15:56.414Z,99554.58
2023-03-26T08:19:39.532Z,99549.39
2023-03-26T08:22:49.750Z,99549.67
2023-03-26T08:26:17.575Z,99550.19
2023-03-26T08:29:48.947Z,99547.84
2023-03-26T08:32:57.211Z,99552.14
2023-03-26T08:36:04.482Z,99548.36
2023-03-26T08:39:10.938Z,99553.91
2023-03-26T08:42:50.389Z,99558.48
2023-03-26T08:46:03.912Z,99555.70
2023-03-26T08:49:40.995Z,99547.70
2023-03-26T08:53:32.031Z,99548.99
2023-03-26T08:56:58.241Z,99552.55
2023-03-26T09:00:35.779Z,99553.20
2023-03-26T09:04:07.545Z,99548.72
2023-03-26T09:07:54.401Z,99559.66
2023-03-26T09:11:50.919Z,99552.63
2023-03-26T09:15:37.724Z,99549.11
2023-03-26T09:19:06.244Z,99551.26
2023-03-26T09:22:47.313Z,99546.84
2023-03-26T09:26:31.294Z,99549.58
2023-03-26T09:30:25.382Z,99555.56
2023-03-26T09:33:54.046Z,99554.73
2023-03-26T09:37:34.550Z,99553.88
2023-03-26T09:40:54.985Z,99544.06
2023-03-26T09:44:53.231Z,99541.91
2023-03-26T09:48:38.040Z,99542.03
2023-03-26T09:51:55.065Z,99538.83
2023-03-26T09:55:18.655Z,99534.68
2023-03-26T09:58:45.257Z,99529.78
2023-03-26T10:02:12.752Z,99530.56
2023-03-26T10:05:52.733Z,99534.62
2023-03-26T10:09:05.767Z,99534.93
2023-03-26T10:12:25.498Z,99529.85
2023-03-26T10:15:59.339Z,99532.98
2023-03-26T10:19:27.415Z,99531.27
2023-03-26T10:22:59.920Z,99530.56
2023-03-26T10:26:41.154Z,99520.08
2023-03-26T10:30:25.338Z,99532.66
2023-03-26T10:33:53.272Z,99527.09
2023-03-26T10:37:25.770Z,99524.82
2023-03-26T10:40:57.185Z,99522.86
2023-03-26T10:44:53.176Z,99523.83
2023-03-26T10:48:15.690Z,99518.04
2023-03-26T10:51:45.085Z,99512.83
2023-03-26T10:55:18.509Z,99507.61
2023-03-26T10:58:48.398Z,99509.34
2023-03-26T11:02:19.690Z,99506.18
2023-03-26T11:05:55.337Z,99504.47
2023-03-26T11:09:37.100Z,99493.66
2023-03-26T11:12:58.229Z,99497.94
2023-03-26T11:16:16.813Z,99494.19
2023-03-26T11:19:35.387Z,99495.75
2023-03-26T11:22:54.132Z,99493.28
2023-03-26T11:26:16.342Z,99489.67
2023-03-26T11:29:57.729Z,99496.83
2023-03-26T11:33:16.644Z,99491.75
2023-03-26T11:36:35.763Z,99493.22
2023-03-26T11:39:45.359Z,99490.88
2023-03-26T11:42:52.000Z,99487.94
2023-03-26T11:46:01.858Z,99491.55
2023-03-26T11:49:18.460Z,99484.50
2023-03-26T11:52:26.548Z,99491.28
2023-03-26T11:55:35.443Z,99485.70
2023-03-26T11:58:45.298Z,99486.36
2023-03-26T12:02:13.576Z,99479.61
2023-03-26T12:05:30.300Z,99479.34
2023-03-26T12:08:46.323Z,99483.18
2023-03-26T12:11:52.402Z,99485.92
2023-03-26T12:14:58.903Z,99481.16
2023-03-26T12:18:08.734Z,99478.52
2023-03-26T12:21:30.585Z,99473.69
2023-03-26T12:24:48.009Z,99470.84
2023-03-26T12:28:01.928Z,99468.76
2023-03-26T12:31:15.212Z,99474.69
2023-03-26T12:34:32.096Z,99472.05
2023-03-26T12:37:51.555Z,99470.47
2023-03-26T12:40:58.938Z,99463.98
2023-03-26T12:44:49.799Z,99466.91
2023-03-26T12:48:00.156Z,99458.68
2023-03-26T12:50:57.792Z,99463.62
2023-03-26T12:54:47.207Z,99460.50
2023-03-26T12:58:13.533Z,99456.52
2023-03-26T13:01:25.070Z,99463.06
2023-03-26T13:05:04.310Z,99459.02
2023-03-26T13:08:29.188Z,99461.29
2023-03-26T13:12:09.774Z,99458.03
2023-03-26T13:15:31.745Z,99462.45
2023-03-26T13:18:52.064Z,99454.23
2023-03-26T13:22:07.648Z,99455.77
2023-03-26T13:25:31.237Z,99452.82
2023-03-26T13:29:09.500Z,99449.02
2023-03-26T13:32:26.647Z,99443.33
2023-03-26T13:35:50.132Z,99446.50
2023-03-26T13:39:11.840Z,99438.93
2023-03-26T13:42:35.164Z,99434.40
2023-03-26T13:45:58.842Z,99433.98
2023-03-26T13:49:12.969Z,99436.10
2023-03-26T13:52:26.804Z,99435.17
2023-03-26T13:55:52.461Z,99429.91
2023-03-26T13:59:16.074Z,99426.23
2023-03-26T14:02:30.587Z,99421.27
2023-03-26T14:05:58.317Z,99426.33
2023-03-26T14:09:12.602Z,99425.19
2023-03-26T14:12:40.837Z,99419.36
2023-03-26T14:16:19.768Z,99415.88
2023-03-26T14:19:48.362Z,99413.03
2023-03-26T14:23:24.727Z,99407.63
2023-03-26T14:27:00.738Z,99409.77
2023-03-26T14:30:43.377Z,99401.33
2023-03-26T14:34:14.457Z,99404.17
2023-03-26T14:37:39.455Z,99408.59
2023-03-26T14:41:10.314Z,99406.19
2023-03-26T14:44:47.615Z,99409.44
2023-03-26T14:47:54.303Z,99403.31
2023-03-26T14:51:29.576Z,99404.38
2023-03-26T14:54:38.557Z,99400.47
2023-03-26T14:57:58.514Z,99402.34
2023-03-26T15:01:28.665Z,99403.83
2023-03-26T15:05:29.671Z,99398.42
2023-03-26T15:09:18.739Z,99404.11
2023-03-26T15:13:04.255Z,99395.27
2023-03-26T15:16:28.215Z,99392.40
2023-03-26T15:19:56.602Z,99393.67
2023-03-26T15:23:23.574Z,99390.94
2023-03-26T15:27:03.563Z,99393.16
2023-03-26T15:30:41.733Z,99393.92
2023-03-26T15:34:05.645Z,99390.13
2023-03-26T15:37:41.698Z,99391.06
2023-03-26T15:41:06.034Z,99385.99
2023-03-26T15:44:24.834Z,99383.98
2023-03-26T15:47:58.566Z,99385.25
2023-03-26T15:51:20.914Z,99376.28
2023-03-26T15:55:08.114Z,99381.50
2023-03-26T15:58:30.745Z,99378.17
2023-03-26T16:02:23.329Z,99371.37
2023-03-26T16:06:13.779Z,99368.28
2023-03-26T16:09:30.133Z,99372.35
2023-03-26T16:12:53.676Z,99375.19
2023-03-26T16:16:13.138Z,99375.15
2023-03-26T16:19:52.620Z,99376.06
2023-03-26T16:23:15.176Z,99367.09
2023-03-26T16:26:38.817Z,99370.44
2023-03-26T16:29:49.505Z,99371.20
2023-03-26T16:33:02.037Z,99385.15
2023-03-26T16:36:11.375Z,99388.80
2023-03-26T16:39:24.972Z,99403.62
2023-03-26T16:42:53.667Z,99406.42
2023-03-26T16:46:13.657Z,99414.77
2023-03-26T16:49:40.033Z,99409.00
2023-03-26T16:53:12.605Z,99415.79
2023-03-26T16:56:45.582Z,99415.81
2023-03-26T17:00:31.793Z,99421.53
2023-03-26T17:04:00.843Z,99415.86
2023-03-26T17:07:32.744Z,99430.00
2023-03-26T17:10:57.845Z,99431.52
2023-03-26T17:14:33.899Z,99436.23
2023-03-26T17:17:54.628Z,99440.48
2023-03-26T17:21:19.887Z,99443.33
2023-03-26T17:24:50.281Z,99449.46
2023-03-26T17:28:51.518Z,99448.55
2023-03-26T17:32:06.647Z,99440.84
2023-03-26T17:35:15.513Z,99436.54
2023-03-26T17:38:45.255Z,99440.44
2023-03-26T17:42:11.301Z,99445.61
2023-03-26T17:45:28.686Z,99440.19
2023-03-26T17:48:36.413Z,99446.47
2023-03-26T17:52:12.180Z,99433.08
2023-03-26T17:55:18.472Z,99440.49
2023-03-26T17:58:54.697Z,99437.91
2023-03-26T18:02:02.755Z,99437.13
2023-03-26T18:05:08.251Z,99433.94
2023-03-26T18:08:59.516Z,99432.46
2023-03-26T18:12:51.158Z,99432.00
2023-03-26T18:16:08.505Z,99430.52
2023-03-26T18:19:19.093Z,99426.67
2023-03-26T18:22:40.382Z,99429.49
2023-03-26T18:25:47.723Z,99434.50
2023-03-26T18:29:01.367Z,99432.68
2023-03-26T18:32:28.542Z,99427.95
2023-03-26T18:35:35.493Z,99440.30
2023-03-26T18:38:42.980Z,99436.09
2023-03-26T18:41:52.589Z,99437.45
2023-03-26T18:45:03.381Z,99430.08
2023-03-26T18:48:17.578Z,99438.28
2023-03-26T18:51:26.313Z,99441.36
2023-03-26T18:54:34.599Z,99442.38
2023-03-26T18:57:43.304Z,99442.38
2023-03-26T19:00:52.442Z,99451.13
2023-03-26T19:03:59.997Z,99451.95
2023-03-26T19:07:05.510Z,99440.00
2023-03-26T19:10:13.092Z,99446.48
2023-03-26T19:13:23.013Z,99440.70
2023-03-26T19:16:39.545Z,99447.54
2023-03-26T19:19:50.061Z,99443.44
2023-03-26T19:22:55.756Z,99444.80
2023-03-26T19:26:05.740Z,99436.09
2023-03-26T19:29:14.865Z,99436.60
2023-03-26T19:32:38.601Z,99432.50
2023-03-26T19:35:45.176Z,99429.45
2023-03-26T19:39:04.311Z,99427.73
2023-03-26T19:42:13.525Z,99426.72
2023-03-26T19:45:21.243Z,99427.03
2023-03-26T19:48:45.826Z,99416.41
2023-03-26T19:51:48.206Z,99411.28
2023-03-26T19:55:19.471Z,99414.84
2023-03-26T19:58:27.768Z,99412.96
2023-03-26T20:01:44.377Z,99416.55
2023-03-26T20:04:50.183Z,99412.11
2023-03-26T20:07:57.301Z,99413.82
2023-03-26T20:11:03.650Z,99412.56
2023-03-26T20:14:09.866Z,99415.95
2023-03-26T20:17:16.520Z,99412.16
2023-03-26T20:20:28.000Z,99425.33
2023-03-26T20:23:34.508Z,99418.69
2023-03-26T20:26:40.881Z,99415.19
2023-03-26T20:29:46.971Z,99418.62
2023-03-26T20:33:12.341Z,99413.36
2023-03-26T20:36:08.866Z,99407.03
2023-03-26T20:39:14.530Z,99412.11
2023-03-26T20:42:21.299Z,99412.96
2023-03-26T20:45:37.416Z,99412.56
2023-03-26T20:48:45.526Z,99414.28
2023-03-26T20:51:55.856Z,99410.17
2023-03-26T20:55:02.910Z,99409.00
2023-03-26T20:58:10.030Z,99408.55
2023-03-26T21:01:17.343Z,99413.05
2023-03-26T21:04:24.367Z,99408.65
2023-03-26T21:07:30.313Z,99411.63
2023-03-26T21:10:37.362Z,99415.92
2023-03-26T21:13:52.751Z,99414.95
2023-03-26T21:17:02.117Z,99418.55
2023-03-26T21:20:11.678Z,99416.32
2023-03-26T21:23:30.016Z,99416.98
2023-03-26T21:27:00.351Z,99415.73
2023-03-26T21:30:09.155Z,99409.67
2023-03-26T21:33:15.105Z,99408.11
2023-03-26T21:36:22.777Z,99408.28
2023-03-26T21:39:28.940Z,99409.77
2023-03-26T21:42:36.810Z,99403.47
2023-03-26T21:45:44.635Z,99399.88
2023-03-26T21:48:52.175Z,99400.74
2023-03-26T21:51:59.216Z,99399.69
2023-03-26T21:55:07.790Z,99402.22
2023-03-26T21:58:35.449Z,99405.07
2023-03-26T22:01:52.460Z,99398.18
2023-03-26T22:05:11.019Z,99398.18
2023-03-26T22:08:18.694Z,99397.67
2023-03-26T22:11:25.266Z,99397.67
2023-03-26T22:14:33.570Z,99394.94
2023-03-26T22:17:39.503Z,99392.00
2023-03-26T22:20:45.222Z,99401.03
2023-03-26T22:23:54.464Z,99390.63
2023-03-26T22:27:02.254Z,99401.03
2023-03-26T22:30:07.592Z,99399.66
2023-03-26T22:33:19.649Z,99400.20
2023-03-26T22:36:26.990Z,99388.41
2023-03-26T22:39:34.599Z,99387.55
2023-03-26T22:42:41.700Z,99396.41
2023-03-26T22:45:48.075Z,99391.14
2023-03-26T22:48:58.523Z,99395.76
2023-03-26T22:52:06.433Z,99391.34
2023-03-26T22:55:13.879Z,99381.45
2023-03-26T22:58:15.905Z,99383.84
2023-03-26T23:01:27.045Z,99381.52
2023-03-26T23:04:37.863Z,99383.08
2023-03-26T23:07:44.591Z,99379.58
2023-03-26T23:10:50.805Z,99382.88
2023-03-26T23:13:56.990Z,99379.68
2023-03-26T23:17:04.355Z,99385.55
2023-03-26T23:20:12.895Z,99386.25
2023-03-26T23:23:21.168Z,99391.06
2023-03-26T23:26:32.760Z,99394.19
2023-03-26T23:29:38.911Z,99388.80
2023-03-26T23:32:38.890Z,99384.55
2023-03-26T23:35:31.469Z,99382.76
2023-03-26T23:38:43.653Z,99386.51
2023-03-26T23:41:46.494Z,99391.35
2023-03-26T23:44:54.854Z,99389.52
2023-03-26T23:48:01.566Z,99379.80
2023-03-26T23:51:10.108Z,99382.93
2023-03-26T23:54:18.477Z,99385.55
2023-03-26T23:57:25.068Z,99382.66
